To NAV CANADA Home Page Login to a new session Search on AWWS site Disclaimer Vers la page française équivalente Tips FAQ What's new on the site To the Forecasts and Observations / NOTAM section To "File a Flight Plan" website Publications and other links Update of the User's profile FIC Telephone Numbers My Weather Data Folder Route Weather Data Regional Weather Data Local Weather Data To the Forecasts and Observations / NOTAM section
Request Generated 01/22/2020 at 22:23:40 UTC . Weather information available at that time is displayed.

METAR/TAF

SALLUIT/QC    

METAR CYZG 222200Z 25004KT 15SM -SN BKN040 M25/M29 A2953 RMK SC7 SN CVR TR LOOSE/LAST STFD OBS/NEXT OBS 231300UTC SLP036=
SPECI CYZG 222148Z 27004KT 15SM -SN BKN039 M25/M30 A2953 RMK SC7 SLP037=
METAR CYZG 222100Z 26008KT 15SM FEW011 SCT037 BKN048 BKN110 M25/M30 A2953 RMK ST1SC3SC4AS1 ST TR AS TR SLP037=
SPECI CYZG 222045Z 25009KT 15SM FEW011 SCT042 BKN056 BKN110 M26/M31 A2953 RMK ST1SC4SC3AS1 ST TR AS TR WSHFT 2033 SLP037=
METAR CYZG 222000Z 20007KT 15SM BKN042 BKN057 BKN110 M24/M30 A2953 RMK SC6SC1AS1 AS TR SLP036=

*** REMARK        : Forecast period has ended; this was the last TAF issued
*** REMARQUE : La période de prévision est échue; ceci était le dernier TAF qui a été émis
TAF CYZG 221438Z 2215/2222 18022KT P6SM SCT040 BKN090 BKN200 TEMPO
2215/2218 2SM BLSN BKN040
FM221800 19015KT P6SM FEW020 BKN040 TEMPO 2218/2222 5SM -SN
BKN020
BECMG 2218/2220 18005KT
RMK NXT FCST WILL BE ISSUED AT 231445Z=
Your time UTC time
Weather data provided by Environment Canada and NAV CANADA